Time;durP1;ratioP1;P1;durP2;ratioP2;P2;SDS_P1;SDS_P2;PMS_P1;PMS_P2;Temp;Humidity;BMP_temperature;BMP_pressure;BME280_temperature;BME280_humidity;BME280_pressure;Samples;Min_cycle;Max_cycle;Signal;HPM_P1;HPM_P2
2022/12/30 00:01:32;;;;;;;2.00;1.90;;;;;;;;;;5055038;28;20878;-86
2022/12/30 00:03:58;;;;;;;2.35;2.15;;;;;;;;;;5037124;28;20417;-86
2022/12/30 00:06:25;;;;;;;2.63;2.20;;;;;;;;;;5037399;28;20413;-85
2022/12/30 00:08:53;;;;;;;1.77;1.67;;;;;;;;;;5054989;28;20378;-87
2022/12/30 00:11:26;;;;;;;1.90;1.57;;;;;;;;;;5054935;28;20886;-85
2022/12/30 00:33:22;;;;;;;0.93;0.90;;;;;;;;;;5052907;28;20431;-85
2022/12/30 00:35:48;;;;;;;0.87;0.80;;;;;;;;;;5046629;28;20378;-85
2022/12/30 00:38:14;;;;;;;1.50;0.70;;;;;;;;;;5054518;28;20846;-86
2022/12/30 00:43:07;;;;;;;0.70;0.60;;;;;;;;;;5054472;28;20469;-85
2022/12/30 00:43:26;;;;;;;0.90;0.68;;;;;;;;;;5054070;28;20425;-85
2022/12/30 00:45:53;;;;;;;0.73;0.55;;;;;;;;;;5054334;28;20464;-85
2022/12/30 00:56:33;;;;;;;1.70;0.70;;;;;;;;;;5054221;28;20449;-86
2022/12/30 00:58:59;;;;;;;1.02;0.90;;;;;;;;;;5053769;28;20503;-86
2022/12/30 01:01:25;;;;;;;1.50;0.93;;;;;;;;;;5053925;28;20417;-86
2022/12/30 01:03:51;;;;;;;1.35;0.93;;;;;;;;;;5053935;28;20436;-85
2022/12/30 01:06:17;;;;;;;0.70;0.70;;;;;;;;;;5054190;28;20373;-86
2022/12/30 01:08:43;;;;;;;1.10;0.90;;;;;;;;;;5047138;28;20791;-86
2022/12/30 01:11:09;;;;;;;1.42;0.80;;;;;;;;;;5032419;28;20401;-86
2022/12/30 01:13:36;;;;;;;0.68;0.60;;;;;;;;;;5053813;28;20387;-85
2022/12/30 01:16:12;;;;;;;0.90;0.70;;;;;;;;;;5053815;28;20385;-86
2022/12/30 01:18:39;;;;;;;0.95;0.70;;;;;;;;;;5053814;28;20386;-87
2022/12/30 01:21:05;;;;;;;0.93;0.50;;;;;;;;;;5053631;28;20477;-86
2022/12/30 01:23:31;;;;;;;1.10;0.80;;;;;;;;;;5053539;28;20466;-86
2022/12/30 01:26:00;;;;;;;1.40;0.80;;;;;;;;;;5049235;28;20449;-85
2022/12/30 01:28:28;;;;;;;1.98;1.10;;;;;;;;;;5053569;28;20747;-86
2022/12/30 01:30:54;;;;;;;1.65;1.05;;;;;;;;;;5053371;28;20740;-86
2022/12/30 01:33:20;;;;;;;2.60;1.17;;;;;;;;;;5053413;28;20374;-86
2022/12/30 01:35:46;;;;;;;1.08;0.80;;;;;;;;;;5053481;28;20384;-86
2022/12/30 01:38:12;;;;;;;1.42;0.68;;;;;;;;;;5053350;28;20381;-86
2022/12/30 01:40:39;;;;;;;2.08;1.02;;;;;;;;;;5053251;28;20401;-85
2022/12/30 01:43:05;;;;;;;2.75;0.90;;;;;;;;;;5053231;28;20401;-85
2022/12/30 01:45:31;;;;;;;1.77;0.80;;;;;;;;;;5053163;28;20449;-86
2022/12/30 01:48:00;;;;;;;2.15;0.90;;;;;;;;;;5053257;28;20416;-85
2022/12/30 01:50:33;;;;;;;1.38;0.77;;;;;;;;;;5053098;28;20390;-86
2022/12/30 01:53:11;;;;;;;1.70;1.05;;;;;;;;;;5053064;28;20374;-86
2022/12/30 01:55:42;;;;;;;1.38;0.60;;;;;;;;;;5053038;28;20386;-86
2022/12/30 01:58:13;;;;;;;0.43;0.40;;;;;;;;;;5035385;28;20442;-86
2022/12/30 02:00:39;;;;;;;1.13;0.47;;;;;;;;;;5052746;28;20496;-86
2022/12/30 02:03:06;;;;;;;0.68;0.40;;;;;;;;;;5052858;28;20492;-86
2022/12/30 02:05:32;;;;;;;1.10;0.80;;;;;;;;;;5052923;28;20386;-85
2022/12/30 02:08:07;;;;;;;1.87;1.20;;;;;;;;;;5052786;28;20447;-87
2022/12/30 02:10:34;;;;;;;1.70;1.33;;;;;;;;;;5051958;28;20389;-85
2022/12/30 02:13:00;;;;;;;2.40;1.80;;;;;;;;;;5052668;28;20390;-86
2022/12/30 02:15:27;;;;;;;2.63;1.00;;;;;;;;;;5052788;28;20424;-86
2022/12/30 02:18:04;;;;;;;0.93;0.40;;;;;;;;;;5052568;28;20392;-87
2022/12/30 02:20:42;;;;;;;0.90;0.52;;;;;;;;;;5052537;28;20377;-85
2022/12/30 02:23:11;;;;;;;1.13;0.50;;;;;;;;;;5050539;28;20436;-86
2022/12/30 02:25:43;;;;;;;1.45;0.90;;;;;;;;;;5052516;28;20374;-86
2022/12/30 02:28:27;;;;;;;1.45;0.90;;;;;;;;;;5043232;28;20398;-86
2022/12/30 02:31:12;;;;;;;1.35;0.90;;;;;;;;;;5052175;28;20453;-86
2022/12/30 02:33:56;;;;;;;1.13;0.47;;;;;;;;;;5052302;28;20378;-86
2022/12/30 02:36:32;;;;;;;1.10;0.57;;;;;;;;;;5034682;28;20385;-86
2022/12/30 02:38:58;;;;;;;0.50;0.50;;;;;;;;;;5052202;28;20405;-86
2022/12/30 02:44:37;;;;;;;2.60;1.50;;;;;;;;;;5048980;28;20496;-87
2022/12/30 02:47:03;;;;;;;1.13;0.80;;;;;;;;;;5042711;28;20428;-87
2022/12/30 02:49:29;;;;;;;1.30;0.70;;;;;;;;;;5038714;28;20421;-85
2022/12/30 02:52:14;;;;;;;0.83;0.63;;;;;;;;;;5051015;28;20446;-85
2022/12/30 02:54:40;;;;;;;0.60;0.30;;;;;;;;;;5052085;28;20380;-85
2022/12/30 02:57:26;;;;;;;0.90;0.30;;;;;;;;;;5052060;28;20424;-85
2022/12/30 03:06:05;;;;;;;0.65;0.30;;;;;;;;;;5052076;28;20412;-85
2022/12/30 03:08:36;;;;;;;0.70;0.40;;;;;;;;;;5051763;28;20370;-87
2022/12/30 03:11:16;;;;;;;1.02;0.60;;;;;;;;;;5039303;28;20375;-87
2022/12/30 03:13:54;;;;;;;1.17;0.40;;;;;;;;;;5051824;28;20854;-85
2022/12/30 03:16:32;;;;;;;0.65;0.30;;;;;;;;;;5051659;28;20924;-85
2022/12/30 03:18:59;;;;;;;0.50;0.30;;;;;;;;;;5045505;28;20395;-86
2022/12/30 03:21:25;;;;;;;0.68;0.30;;;;;;;;;;5048505;28;20432;-87
2022/12/30 03:29:25;;;;;;;15.25;13.88;;;;;;;;;;5039118;28;20417;-86
2022/12/30 03:31:51;;;;;;;3.57;3.23;;;;;;;;;;5043879;28;20529;-85
2022/12/30 03:34:17;;;;;;;0.50;0.40;;;;;;;;;;5049779;28;20374;-86
2022/12/30 03:36:45;;;;;;;0.55;0.30;;;;;;;;;;5050750;28;20480;-86
2022/12/30 03:39:15;;;;;;;0.50;0.30;;;;;;;;;;5051478;28;20381;-86
2022/12/30 03:41:42;;;;;;;1.05;0.40;;;;;;;;;;5051477;28;20392;-86
2022/12/30 03:44:09;;;;;;;0.60;0.30;;;;;;;;;;5051386;28;20561;-86
2022/12/30 03:46:35;;;;;;;0.80;0.40;;;;;;;;;;5051466;28;20734;-85
2022/12/30 03:49:01;;;;;;;0.30;0.30;;;;;;;;;;5051296;28;20377;-86
2022/12/30 03:51:27;;;;;;;0.70;0.40;;;;;;;;;;5051432;28;20373;-86
2022/12/30 03:53:53;;;;;;;0.90;0.30;;;;;;;;;;5033466;28;20395;-86
2022/12/30 03:56:19;;;;;;;1.20;0.50;;;;;;;;;;5051349;28;20393;-86
2022/12/30 03:58:45;;;;;;;0.68;0.40;;;;;;;;;;5051369;28;20405;-86
2022/12/30 04:01:11;;;;;;;0.90;0.50;;;;;;;;;;5051125;28;20401;-85
2022/12/30 04:03:37;;;;;;;0.40;0.30;;;;;;;;;;5051284;28;20420;-86
2022/12/30 04:06:03;;;;;;;0.70;0.30;;;;;;;;;;5051263;28;20434;-86
2022/12/30 04:08:29;;;;;;;0.68;0.30;;;;;;;;;;5051328;28;20380;-86
2022/12/30 04:10:55;;;;;;;0.28;0.28;;;;;;;;;;5051168;28;20921;-87
2022/12/30 04:13:21;;;;;;;0.75;0.38;;;;;;;;;;5051251;28;20385;-86
2022/12/30 04:15:48;;;;;;;0.55;0.40;;;;;;;;;;5033346;28;20417;-86
2022/12/30 04:18:14;;;;;;;0.93;0.38;;;;;;;;;;5048279;28;20441;-85
2022/12/30 04:20:40;;;;;;;0.32;0.30;;;;;;;;;;5043725;28;20470;-86
2022/12/30 04:23:06;;;;;;;0.40;0.40;;;;;;;;;;5047914;28;20449;-87
2022/12/30 04:25:32;;;;;;;0.75;0.50;;;;;;;;;;5033534;28;20413;-86
2022/12/30 04:27:58;;;;;;;1.23;0.57;;;;;;;;;;5051041;28;20867;-86
2022/12/30 04:30:24;;;;;;;0.97;0.60;;;;;;;;;;5050879;28;20433;-85
2022/12/30 04:32:50;;;;;;;1.02;0.70;;;;;;;;;;5033151;28;20854;-86
2022/12/30 04:35:16;;;;;;;0.60;0.57;;;;;;;;;;5054241;28;20446;-87
2022/12/30 04:37:42;;;;;;;0.75;0.65;;;;;;;;;;5054620;28;20441;-85
2022/12/30 04:40:09;;;;;;;0.70;0.60;;;;;;;;;;5054384;28;20377;-85
2022/12/30 04:42:35;;;;;;;1.00;0.90;;;;;;;;;;5054437;28;20847;-86
2022/12/30 04:45:01;;;;;;;1.10;1.00;;;;;;;;;;5054329;28;20408;-86
2022/12/30 04:47:29;;;;;;;1.85;1.40;;;;;;;;;;5054334;28;20404;-86
2022/12/30 04:49:55;;;;;;;1.30;1.20;;;;;;;;;;5051278;28;20393;-86
2022/12/30 04:52:21;;;;;;;1.25;1.15;;;;;;;;;;5045933;28;20514;-87
2022/12/30 04:54:47;;;;;;;2.38;1.20;;;;;;;;;;5043077;28;20747;-86
2022/12/30 04:57:13;;;;;;;1.00;0.70;;;;;;;;;;5047943;28;20373;-86
2022/12/30 04:59:39;;;;;;;5.05;4.55;;;;;;;;;;5052873;28;20476;-87
2022/12/30 05:02:06;;;;;;;2.67;2.45;;;;;;;;;;5054130;28;20389;-86
2022/12/30 05:04:32;;;;;;;1.98;1.50;;;;;;;;;;5053137;28;20412;-86
2022/12/30 05:06:58;;;;;;;1.70;1.15;;;;;;;;;;5054019;28;20380;-87
2022/12/30 05:09:24;;;;;;;1.77;1.43;;;;;;;;;;5053674;28;20385;-86
2022/12/30 05:11:50;;;;;;;1.30;1.20;;;;;;;;;;5053823;28;20738;-86
2022/12/30 05:14:16;;;;;;;10.43;8.60;;;;;;;;;;5053691;28;20389;-87
2022/12/30 05:16:42;;;;;;;5.18;4.47;;;;;;;;;;5053662;28;20859;-87
2022/12/30 05:19:11;;;;;;;1.60;1.20;;;;;;;;;;5049183;28;20419;-86
2022/12/30 05:21:37;;;;;;;2.50;2.30;;;;;;;;;;5052999;28;20388;-86
2022/12/30 05:26:48;;;;;;;0.90;0.60;;;;;;;;;;5053678;28;20752;-86
2022/12/30 05:29:14;;;;;;;2.45;2.15;;;;;;;;;;5035538;28;20385;-86
2022/12/30 05:31:39;;;;;;;2.35;2.15;;;;;;;;;;5053376;28;20481;-87
2022/12/30 05:34:06;;;;;;;2.20;2.10;;;;;;;;;;5059235;28;20381;-87
2022/12/30 05:36:32;;;;;;;2.60;2.40;;;;;;;;;;5056697;28;20515;-86
2022/12/30 05:38:58;;;;;;;1.25;0.98;;;;;;;;;;5053359;28;20389;-87
2022/12/30 05:41:25;;;;;;;1.10;1.00;;;;;;;;;;5053291;28;20381;-86
2022/12/30 05:43:51;;;;;;;3.45;2.72;;;;;;;;;;5053059;28;20409;-87
2022/12/30 05:46:17;;;;;;;1.60;1.20;;;;;;;;;;5052030;28;20918;-87
2022/12/30 05:48:43;;;;;;;2.00;0.80;;;;;;;;;;5053125;28;20374;-86
2022/12/30 05:51:09;;;;;;;0.95;0.82;;;;;;;;;;5053095;28;20381;-86
2022/12/30 05:53:35;;;;;;;1.10;1.00;;;;;;;;;;5053072;28;20874;-87
2022/12/30 05:56:03;;;;;;;1.30;0.80;;;;;;;;;;5053069;28;20428;-86
2022/12/30 05:58:29;;;;;;;0.88;0.70;;;;;;;;;;5053426;28;20385;-86
2022/12/30 06:00:58;;;;;;;1.10;0.60;;;;;;;;;;5052736;28;20500;-86
2022/12/30 06:03:24;;;;;;;0.50;0.50;;;;;;;;;;5052815;28;20451;-85
2022/12/30 06:06:00;;;;;;;0.60;0.60;;;;;;;;;;5052936;28;20434;-86
2022/12/30 06:08:26;;;;;;;0.50;0.50;;;;;;;;;;5052925;28;20386;-87
2022/12/30 06:10:52;;;;;;;1.00;0.50;;;;;;;;;;5052699;28;20402;-85
2022/12/30 06:13:18;;;;;;;0.50;0.50;;;;;;;;;;5052796;28;20878;-87
2022/12/30 06:15:44;;;;;;;0.60;0.60;;;;;;;;;;5052652;28;20460;-86
2022/12/30 06:18:10;;;;;;;1.20;0.60;;;;;;;;;;5048342;28;20870;-85
2022/12/30 06:20:36;;;;;;;0.82;0.82;;;;;;;;;;5052613;28;20389;-85
2022/12/30 06:23:03;;;;;;;1.40;1.00;;;;;;;;;;5052449;28;20945;-86
2022/12/30 06:25:29;;;;;;;1.13;1.02;;;;;;;;;;5052436;28;20389;-86
2022/12/30 06:27:55;;;;;;;0.50;0.50;;;;;;;;;;5052434;28;20377;-86
2022/12/30 06:30:21;;;;;;;0.90;0.38;;;;;;;;;;5024535;28;20453;-86
2022/12/30 06:32:47;;;;;;;0.50;0.40;;;;;;;;;;5052263;28;20481;-85
2022/12/30 06:35:13;;;;;;;3.83;1.10;;;;;;;;;;5052331;28;20378;-86
2022/12/30 06:37:39;;;;;;;1.13;0.82;;;;;;;;;;5052314;28;20472;-86
2022/12/30 06:40:06;;;;;;;0.83;0.43;;;;;;;;;;5052180;28;20471;-86
2022/12/30 06:42:32;;;;;;;0.75;0.60;;;;;;;;;;5052274;28;20476;-86
2022/12/30 06:44:58;;;;;;;0.60;0.60;;;;;;;;;;5051958;28;20414;-87
2022/12/30 06:47:25;;;;;;;0.60;0.60;;;;;;;;;;5048939;28;20376;-88
2022/12/30 06:49:50;;;;;;;1.60;1.38;;;;;;;;;;5052136;28;20855;-87
2022/12/30 06:52:16;;;;;;;46.05;22.83;;;;;;;;;;5052025;28;20381;-86
2022/12/30 06:54:42;;;;;;;82.80;37.73;;;;;;;;;;5051927;28;21006;-87
2022/12/30 06:57:09;;;;;;;3.05;2.45;;;;;;;;;;5051509;28;20393;-87
2022/12/30 06:59:35;;;;;;;8.63;6.32;;;;;;;;;;5051524;28;20408;-86
2022/12/30 07:02:00;;;;;;;37.13;18.98;;;;;;;;;;5051887;28;20389;-87
2022/12/30 07:04:26;;;;;;;23.95;13.77;;;;;;;;;;5051568;28;20428;-88
2022/12/30 07:06:52;;;;;;;4.82;3.53;;;;;;;;;;5051816;28;20404;-87
2022/12/30 07:09:19;;;;;;;3.22;2.67;;;;;;;;;;5051694;28;20377;-87
2022/12/30 07:11:45;;;;;;;49.92;19.73;;;;;;;;;;5051721;28;20381;-87
2022/12/30 07:14:11;;;;;;;3.70;3.08;;;;;;;;;;5051569;28;20385;-87
2022/12/30 07:16:37;;;;;;;3.20;2.60;;;;;;;;;;5051912;28;20720;-87
2022/12/30 07:19:03;;;;;;;5.35;3.20;;;;;;;;;;5051469;28;20476;-87
2022/12/30 07:21:29;;;;;;;7.82;5.30;;;;;;;;;;5051533;28;20385;-87
2022/12/30 07:23:55;;;;;;;9.05;6.50;;;;;;;;;;5044786;28;20480;-87
2022/12/30 07:26:21;;;;;;;8.75;6.07;;;;;;;;;;5047117;28;20380;-86
2022/12/30 07:28:47;;;;;;;9.50;7.20;;;;;;;;;;5049686;28;20865;-86
2022/12/30 07:31:13;;;;;;;4.75;3.58;;;;;;;;;;5033833;28;20468;-87
2022/12/30 07:33:39;;;;;;;7.40;6.57;;;;;;;;;;5051377;28;20389;-87
2022/12/30 07:36:05;;;;;;;5.30;4.90;;;;;;;;;;5051366;28;20794;-86
2022/12/30 07:38:31;;;;;;;5.57;5.07;;;;;;;;;;5051398;28;20377;-86
2022/12/30 07:40:57;;;;;;;5.18;4.78;;;;;;;;;;5051400;28;20405;-87
2022/12/30 07:43:23;;;;;;;5.40;4.67;;;;;;;;;;5051171;28;20834;-86
2022/12/30 07:45:49;;;;;;;3.78;3.47;;;;;;;;;;5051278;28;20381;-86
2022/12/30 07:48:15;;;;;;;3.63;3.33;;;;;;;;;;5051374;28;20392;-86
2022/12/30 07:50:41;;;;;;;4.82;4.05;;;;;;;;;;5051060;28;20850;-87
2022/12/30 07:53:07;;;;;;;4.88;4.45;;;;;;;;;;5051351;28;20377;-86
2022/12/30 07:55:34;;;;;;;4.80;4.40;;;;;;;;;;5051274;28;20374;-87
2022/12/30 07:58:00;;;;;;;4.80;4.40;;;;;;;;;;5051249;28;20443;-87
2022/12/30 08:00:26;;;;;;;3.95;3.65;;;;;;;;;;5050986;28;20474;-86
2022/12/30 08:02:52;;;;;;;4.40;4.00;;;;;;;;;;5051126;28;20456;-86
2022/12/30 08:05:18;;;;;;;3.67;3.38;;;;;;;;;;5051028;28;20912;-86
2022/12/30 08:07:44;;;;;;;3.28;2.97;;;;;;;;;;5051168;28;20377;-87
2022/12/30 08:10:10;;;;;;;2.88;2.67;;;;;;;;;;5054488;28;20458;-88
2022/12/30 08:12:36;;;;;;;3.20;2.90;;;;;;;;;;5036968;28;20724;-87
2022/12/30 08:15:03;;;;;;;5.63;2.60;;;;;;;;;;5055001;28;20389;-86
2022/12/30 08:17:29;;;;;;;3.85;2.40;;;;;;;;;;5054909;28;20389;-86
2022/12/30 08:19:55;;;;;;;2.58;2.38;;;;;;;;;;5052753;28;20388;-86
2022/12/30 08:22:21;;;;;;;3.10;2.80;;;;;;;;;;5053177;28;20385;-87
2022/12/30 08:24:47;;;;;;;2.67;2.47;;;;;;;;;;5052489;28;20926;-88
2022/12/30 08:27:13;;;;;;;2.63;2.43;;;;;;;;;;5054801;28;20388;-88
2022/12/30 08:29:39;;;;;;;3.15;2.85;;;;;;;;;;5054591;28;21114;-87
2022/12/30 08:32:05;;;;;;;3.05;2.75;;;;;;;;;;5054581;28;20412;-87
2022/12/30 08:34:31;;;;;;;3.17;2.88;;;;;;;;;;5054576;28;20862;-88
2022/12/30 08:36:57;;;;;;;9.40;7.80;;;;;;;;;;5054481;28;20384;-86
2022/12/30 08:39:23;;;;;;;6.40;5.45;;;;;;;;;;5036785;28;20389;-87
2022/12/30 08:41:49;;;;;;;6.30;5.70;;;;;;;;;;5054407;28;20393;-87
2022/12/30 08:44:15;;;;;;;6.43;5.82;;;;;;;;;;5052687;28;20458;-87
2022/12/30 08:46:41;;;;;;;10.38;8.52;;;;;;;;;;5046193;28;20377;-86
2022/12/30 08:49:08;;;;;;;14.93;12.35;;;;;;;;;;5054181;28;20378;-86
2022/12/30 08:51:34;;;;;;;8.50;7.70;;;;;;;;;;5054262;28;20468;-87
2022/12/30 08:54:00;;;;;;;6.83;6.13;;;;;;;;;;5053974;28;20387;-88
2022/12/30 08:56:27;;;;;;;6.75;5.70;;;;;;;;;;5054154;28;20404;-87
2022/12/30 08:58:54;;;;;;;5.10;4.60;;;;;;;;;;5054032;28;20385;-87
2022/12/30 09:01:22;;;;;;;6.93;5.55;;;;;;;;;;5053730;28;20494;-86
2022/12/30 09:03:49;;;;;;;6.35;4.65;;;;;;;;;;5053968;28;20409;-86
2022/12/30 09:06:15;;;;;;;6.47;4.40;;;;;;;;;;5053824;28;20562;-88
2022/12/30 09:08:42;;;;;;;8.00;5.97;;;;;;;;;;5053736;28;20436;-88
2022/12/30 09:11:09;;;;;;;5.95;4.70;;;;;;;;;;5053787;28;20385;-87
2022/12/30 09:13:36;;;;;;;57.47;30.10;;;;;;;;;;5053778;28;20385;-87
2022/12/30 09:16:02;;;;;;;8.63;6.72;;;;;;;;;;5052838;28;20409;-86
2022/12/30 09:18:28;;;;;;;7.90;6.20;;;;;;;;;;5047113;28;20382;-86
2022/12/30 09:20:54;;;;;;;4.50;4.03;;;;;;;;;;5035448;28;20739;-86
2022/12/30 09:23:20;;;;;;;4.88;4.10;;;;;;;;;;5053490;28;20459;-87
2022/12/30 09:25:46;;;;;;;4.20;3.80;;;;;;;;;;5035526;28;20472;-87
2022/12/30 09:28:13;;;;;;;4.28;3.92;;;;;;;;;;5053437;28;20420;-87
2022/12/30 09:30:39;;;;;;;4.28;3.97;;;;;;;;;;5053262;28;20913;-86
2022/12/30 09:33:05;;;;;;;4.90;4.50;;;;;;;;;;5051732;28;20399;-86
2022/12/30 09:35:31;;;;;;;4.20;3.90;;;;;;;;;;5053392;28;20933;-88
2022/12/30 09:37:57;;;;;;;8.75;4.95;;;;;;;;;;5053392;28;20388;-86
2022/12/30 09:40:41;;;;;;;5.63;5.13;;;;;;;;;;5053269;28;20374;-87
2022/12/30 09:43:15;;;;;;;5.65;5.15;;;;;;;;;;5053714;28;20384;-86
2022/12/30 09:45:59;;;;;;;8.00;5.60;;;;;;;;;;5053230;28;20381;-86
2022/12/30 09:48:28;;;;;;;5.90;5.40;;;;;;;;;;5053112;28;20382;-87
2022/12/30 09:50:54;;;;;;;4.28;3.88;;;;;;;;;;5052987;28;20378;-86
2022/12/30 09:53:39;;;;;;;3.57;3.27;;;;;;;;;;5053125;28;20381;-86
2022/12/30 09:56:11;;;;;;;4.10;3.80;;;;;;;;;;5052955;28;20396;-88
2022/12/30 09:58:37;;;;;;;4.40;4.10;;;;;;;;;;5053102;28;20754;-87
2022/12/30 10:01:14;;;;;;;5.40;4.90;;;;;;;;;;5052531;28;20417;-86
2022/12/30 10:03:40;;;;;;;5.85;5.45;;;;;;;;;;5052885;28;20413;-87
2022/12/30 10:06:12;;;;;;;6.53;5.93;;;;;;;;;;5052709;28;20377;-87
2022/12/30 10:08:38;;;;;;;7.60;6.90;;;;;;;;;;5052813;28;20369;-86
2022/12/30 10:11:26;;;;;;;8.68;7.97;;;;;;;;;;5052577;28;20388;-86
2022/12/30 10:14:13;;;;;;;7.80;7.10;;;;;;;;;;5052634;28;20429;-86
2022/12/30 10:16:58;;;;;;;9.20;8.43;;;;;;;;;;5040986;28;20434;-86
2022/12/30 10:19:23;;;;;;;8.70;8.00;;;;;;;;;;5050551;28;20389;-86
2022/12/30 10:22:01;;;;;;;8.55;7.85;;;;;;;;;;5052509;28;20439;-87
2022/12/30 10:24:33;;;;;;;8.10;7.47;;;;;;;;;;5052397;28;20421;-87
2022/12/30 10:27:02;;;;;;;9.05;8.25;;;;;;;;;;5052328;28;20376;-87
2022/12/30 10:29:30;;;;;;;8.55;7.85;;;;;;;;;;5052234;28;20439;-86
2022/12/30 10:31:58;;;;;;;7.70;7.10;;;;;;;;;;5051466;28;20378;-88
2022/12/30 10:34:28;;;;;;;7.82;7.22;;;;;;;;;;5052286;28;20381;-86
2022/12/30 10:37:00;;;;;;;7.65;7.05;;;;;;;;;;5056773;28;20381;-86
2022/12/30 10:39:30;;;;;;;8.15;7.45;;;;;;;;;;5057409;28;20384;-86
2022/12/30 10:42:07;;;;;;;8.85;8.15;;;;;;;;;;5051761;28;20385;-86
2022/12/30 10:44:42;;;;;;;7.47;6.90;;;;;;;;;;5051972;28;20410;-86
2022/12/30 10:47:27;;;;;;;4.77;4.47;;;;;;;;;;5052020;28;20377;-86
2022/12/30 10:50:11;;;;;;;4.65;4.30;;;;;;;;;;5044086;28;20403;-86
2022/12/30 10:52:37;;;;;;;4.93;4.63;;;;;;;;;;5049855;28;20381;-86
2022/12/30 10:55:18;;;;;;;3.72;3.53;;;;;;;;;;5051922;28;20385;-87
2022/12/30 10:57:44;;;;;;;4.25;3.95;;;;;;;;;;5051889;28;20428;-87
2022/12/30 11:00:10;;;;;;;5.15;4.75;;;;;;;;;;5051596;28;20401;-86
2022/12/30 11:02:38;;;;;;;5.07;4.68;;;;;;;;;;5051822;28;20400;-87
2022/12/30 11:05:23;;;;;;;4.88;4.47;;;;;;;;;;5051773;28;20406;-86
2022/12/30 11:07:55;;;;;;;4.93;4.53;;;;;;;;;;5047845;28;20445;-86
2022/12/30 11:10:21;;;;;;;5.32;4.93;;;;;;;;;;5051712;28;20851;-86
2022/12/30 11:15:48;;;;;;;5.97;5.57;;;;;;;;;;5051996;28;20419;-87
2022/12/30 11:18:15;;;;;;;5.72;5.32;;;;;;;;;;5051598;28;20385;-86
2022/12/30 11:20:41;;;;;;;5.13;4.73;;;;;;;;;;5051556;28;21009;-86
2022/12/30 11:23:23;;;;;;;4.95;4.65;;;;;;;;;;5051428;28;20376;-88
2022/12/30 11:25:49;;;;;;;6.35;5.90;;;;;;;;;;5051578;28;20515;-86
2022/12/30 11:28:21;;;;;;;7.00;6.50;;;;;;;;;;5051444;28;20413;-87
2022/12/30 11:30:53;;;;;;;6.63;6.13;;;;;;;;;;5051392;28;20374;-86
2022/12/30 11:33:20;;;;;;;5.40;5.00;;;;;;;;;;5025972;28;20778;-87
2022/12/30 11:35:47;;;;;;;5.63;5.32;;;;;;;;;;5051534;28;20377;-87
2022/12/30 11:38:30;;;;;;;5.57;5.18;;;;;;;;;;5051433;28;20428;-86
2022/12/30 11:40:56;;;;;;;5.60;5.10;;;;;;;;;;5051398;28;20440;-86
2022/12/30 11:43:23;;;;;;;4.43;4.13;;;;;;;;;;5053469;28;20381;-86
2022/12/30 11:45:55;;;;;;;5.10;4.80;;;;;;;;;;5037822;28;20397;-86
2022/12/30 11:48:29;;;;;;;4.97;4.68;;;;;;;;;;5056990;28;20427;-86
2022/12/30 11:50:55;;;;;;;5.28;4.93;;;;;;;;;;5055294;28;20381;-86
2022/12/30 11:53:24;;;;;;;5.00;4.70;;;;;;;;;;5055358;28;20783;-86
2022/12/30 11:55:51;;;;;;;4.40;4.10;;;;;;;;;;5055231;28;20911;-86
2022/12/30 11:58:18;;;;;;;4.95;4.65;;;;;;;;;;5055308;28;20392;-86
2022/12/30 12:00:46;;;;;;;5.47;5.13;;;;;;;;;;5054866;28;20408;-86
2022/12/30 12:03:16;;;;;;;4.65;4.35;;;;;;;;;;5055139;28;20385;-86
2022/12/30 12:05:43;;;;;;;4.80;4.50;;;;;;;;;;5055156;28;20374;-85
2022/12/30 12:08:28;;;;;;;4.75;4.45;;;;;;;;;;5054985;28;20889;-86
2022/12/30 12:11:03;;;;;;;4.90;4.60;;;;;;;;;;5048786;28;20407;-86
2022/12/30 12:13:29;;;;;;;5.00;4.70;;;;;;;;;;5055043;28;20409;-85
2022/12/30 12:15:56;;;;;;;5.13;4.72;;;;;;;;;;5054966;28;20373;-86
2022/12/30 12:18:32;;;;;;;5.10;4.70;;;;;;;;;;5054801;28;20920;-86
2022/12/30 12:21:05;;;;;;;6.13;5.67;;;;;;;;;;5054802;28;20378;-86
2022/12/30 12:23:45;;;;;;;6.55;5.90;;;;;;;;;;5054745;28;20404;-86
2022/12/30 12:26:13;;;;;;;5.68;5.28;;;;;;;;;;5043261;28;20378;-86
2022/12/30 12:28:40;;;;;;;6.05;5.65;;;;;;;;;;5054725;28;20373;-86
2022/12/30 12:31:25;;;;;;;5.25;4.85;;;;;;;;;;5054566;28;20855;-87
2022/12/30 12:34:13;;;;;;;6.30;5.88;;;;;;;;;;5054660;28;20467;-86
2022/12/30 12:36:54;;;;;;;7.18;6.68;;;;;;;;;;5036600;28;20886;-87
2022/12/30 12:39:38;;;;;;;9.13;8.43;;;;;;;;;;5054361;28;20473;-86
2022/12/30 12:42:08;;;;;;;8.33;7.73;;;;;;;;;;5054414;28;20377;-86
2022/12/30 12:44:52;;;;;;;7.72;7.13;;;;;;;;;;5054285;28;20409;-86
2022/12/30 12:47:37;;;;;;;7.82;7.22;;;;;;;;;;5054292;28;20773;-86
2022/12/30 12:50:15;;;;;;;9.40;8.70;;;;;;;;;;5054019;28;20410;-86
2022/12/30 12:53:00;;;;;;;28.05;25.05;;;;;;;;;;5054117;28;20414;-86
2022/12/30 12:55:30;;;;;;;12.45;11.45;;;;;;;;;;5035694;28;20832;-86
2022/12/30 12:58:03;;;;;;;11.23;10.43;;;;;;;;;;5041684;28;20423;-86
2022/12/30 13:00:35;;;;;;;9.70;8.90;;;;;;;;;;5054073;28;20413;-86
2022/12/30 13:03:15;;;;;;;10.52;9.73;;;;;;;;;;5054006;28;20394;-86
2022/12/30 13:05:51;;;;;;;10.90;10.02;;;;;;;;;;5054027;28;20491;-87
2022/12/30 13:08:23;;;;;;;13.00;11.88;;;;;;;;;;5052361;28;20374;-86
2022/12/30 13:11:09;;;;;;;12.60;11.40;;;;;;;;;;5054289;28;20461;-87
2022/12/30 13:13:38;;;;;;;11.55;10.70;;;;;;;;;;5053957;28;20431;-87
2022/12/30 13:16:11;;;;;;;11.63;10.57;;;;;;;;;;5053717;28;20365;-86
2022/12/30 13:18:39;;;;;;;11.63;10.52;;;;;;;;;;5036128;28;20393;-86
2022/12/30 13:21:06;;;;;;;13.10;11.90;;;;;;;;;;5035821;28;20851;-86
2022/12/30 13:23:44;;;;;;;10.93;10.00;;;;;;;;;;5053687;28;20409;-86
2022/12/30 13:26:10;;;;;;;10.00;9.20;;;;;;;;;;5035667;28;20385;-86
2022/12/30 13:28:37;;;;;;;10.50;9.70;;;;;;;;;;5053638;28;20381;-85
2022/12/30 13:31:02;;;;;;;11.80;10.80;;;;;;;;;;5053279;28;20386;-86
2022/12/30 13:33:28;;;;;;;10.43;9.63;;;;;;;;;;5053484;28;20396;-86
2022/12/30 13:36:00;;;;;;;9.65;8.70;;;;;;;;;;5035404;28;20404;-86
2022/12/30 13:38:39;;;;;;;8.70;7.97;;;;;;;;;;5051367;28;20437;-85
2022/12/30 13:41:11;;;;;;;8.40;7.70;;;;;;;;;;5053284;28;20385;-85
2022/12/30 13:43:45;;;;;;;8.77;8.00;;;;;;;;;;5035255;28;20883;-86
2022/12/30 13:46:40;;;;;;;9.73;8.90;;;;;;;;;;5053140;28;20476;-86
2022/12/30 13:49:15;;;;;;;11.43;10.48;;;;;;;;;;5019371;28;20386;-86
2022/12/30 13:51:50;;;;;;;13.38;12.10;;;;;;;;;;5053139;28;20377;-85
2022/12/30 13:54:18;;;;;;;12.88;11.77;;;;;;;;;;5053114;28;20391;-87
2022/12/30 13:56:46;;;;;;;13.07;11.98;;;;;;;;;;5053098;28;20380;-86
2022/12/30 13:59:38;;;;;;;12.77;11.68;;;;;;;;;;5052964;28;20381;-87
2022/12/30 14:02:19;;;;;;;13.32;12.13;;;;;;;;;;5048651;28;20921;-86
2022/12/30 14:04:45;;;;;;;13.70;12.50;;;;;;;;;;5052749;28;20496;-86
2022/12/30 14:07:31;;;;;;;9.53;8.63;;;;;;;;;;5051906;28;20444;-86
2022/12/30 14:10:15;;;;;;;9.88;8.98;;;;;;;;;;5049261;28;20373;-86
2022/12/30 14:12:41;;;;;;;8.23;7.53;;;;;;;;;;5047594;28;20423;-86
2022/12/30 14:15:26;;;;;;;9.43;8.52;;;;;;;;;;5052692;28;20382;-86
2022/12/30 14:17:52;;;;;;;9.68;8.82;;;;;;;;;;5052882;28;20861;-85
2022/12/30 14:20:23;;;;;;;9.50;8.60;;;;;;;;;;5052528;28;20377;-86
2022/12/30 14:22:49;;;;;;;9.43;8.52;;;;;;;;;;5052429;28;20429;-87
2022/12/30 14:25:16;;;;;;;8.27;7.57;;;;;;;;;;5032758;28;20944;-85
2022/12/30 14:27:49;;;;;;;8.32;7.53;;;;;;;;;;5052770;28;20378;-86
2022/12/30 14:30:19;;;;;;;7.80;7.10;;;;;;;;;;5052262;28;20460;-87
2022/12/30 14:32:45;;;;;;;6.28;5.78;;;;;;;;;;5044605;28;20370;-87
2022/12/30 14:35:18;;;;;;;6.95;6.25;;;;;;;;;;5052293;28;20439;-86
2022/12/30 14:37:44;;;;;;;5.53;5.13;;;;;;;;;;5052292;28;20389;-88
2022/12/30 14:40:23;;;;;;;6.50;5.90;;;;;;;;;;5052061;28;20385;-86
2022/12/30 14:42:54;;;;;;;6.22;5.72;;;;;;;;;;5034603;28;20897;-86
2022/12/30 14:45:22;;;;;;;6.97;5.97;;;;;;;;;;5052042;28;20775;-86
2022/12/30 14:47:48;;;;;;;8.90;8.00;;;;;;;;;;5052146;28;20464;-86
2022/12/30 14:50:15;;;;;;;9.18;7.75;;;;;;;;;;5051924;28;20417;-86
2022/12/30 14:52:58;;;;;;;7.68;6.97;;;;;;;;;;5051886;28;20946;-86
2022/12/30 14:55:26;;;;;;;8.43;7.63;;;;;;;;;;5051890;28;20455;-85
2022/12/30 14:57:59;;;;;;;8.57;7.68;;;;;;;;;;5049068;28;20381;-86
2022/12/30 15:00:27;;;;;;;5.53;5.13;;;;;;;;;;5051613;28;20409;-86
2022/12/30 15:02:57;;;;;;;8.07;7.28;;;;;;;;;;5051821;28;20400;-87
2022/12/30 15:05:25;;;;;;;8.27;7.57;;;;;;;;;;5051750;28;20409;-86
2022/12/30 15:07:56;;;;;;;9.48;8.68;;;;;;;;;;5047434;28;20731;-86
2022/12/30 15:10:42;;;;;;;9.20;8.40;;;;;;;;;;5051607;28;20384;-86
2022/12/30 15:13:15;;;;;;;9.65;8.85;;;;;;;;;;5023060;28;20464;-87
2022/12/30 15:15:45;;;;;;;7.50;6.90;;;;;;;;;;5051620;28;20468;-87
2022/12/30 15:18:37;;;;;;;5.67;5.27;;;;;;;;;;5051339;28;20415;-86
2022/12/30 15:21:18;;;;;;;5.00;4.60;;;;;;;;;;5001628;28;20379;-87
2022/12/30 15:24:00;;;;;;;5.40;4.90;;;;;;;;;;5039658;28;20445;-86
2022/12/30 15:26:28;;;;;;;9.60;8.73;;;;;;;;;;5060393;28;20377;-85
2022/12/30 15:28:55;;;;;;;8.53;7.83;;;;;;;;;;5034842;28;20468;-86
2022/12/30 15:31:33;;;;;;;8.10;7.40;;;;;;;;;;5049577;28;20879;-87
2022/12/30 15:34:00;;;;;;;8.40;7.70;;;;;;;;;;5039901;28;20438;-86
2022/12/30 15:36:28;;;;;;;8.23;7.53;;;;;;;;;;5051382;28;20389;-87
2022/12/30 15:38:55;;;;;;;7.63;7.03;;;;;;;;;;5051366;28;20400;-87
2022/12/30 15:41:24;;;;;;;9.48;8.73;;;;;;;;;;5051305;28;20385;-87
2022/12/30 15:43:51;;;;;;;10.73;9.73;;;;;;;;;;5051201;28;20500;-86